Time;durP1;ratioP1;P1;durP2;ratioP2;P2;SDS_P1;SDS_P2;PMS_P1;PMS_P2;Temp;Humidity;BMP_temperature;BMP_pressure;BME280_temperature;BME280_humidity;BME280_pressure;Samples;Min_cycle;Max_cycle;Signal;HPM_P1;HPM_P2
2022/06/29 00:02:11;;;;;;;;;;;17.10;84.70;;;;;;5001747;28;19932;-85
2022/06/29 00:04:40;;;;;;;;;;;17.10;84.70;;;;;;5000601;28;19932;-86
2022/06/29 00:07:09;;;;;;;;;;;17.00;85.10;;;;;;4998888;28;19930;-85
2022/06/29 00:09:37;;;;;;;;;;;16.80;84.90;;;;;;4976972;28;19958;-87
2022/06/29 00:12:05;;;;;;;;;;;17.00;85.10;;;;;;4996095;28;19936;-86
2022/06/29 00:14:41;;;;;;;;;;;17.00;85.20;;;;;;4996650;28;19929;-86
2022/06/29 00:17:16;;;;;;;;;;;17.00;85.30;;;;;;4989469;28;19953;-86
2022/06/29 00:19:45;;;;;;;;;;;17.00;85.10;;;;;;5034560;28;19925;-85
2022/06/29 00:22:15;;;;;;;;;;;17.00;85.30;;;;;;5005836;28;19926;-85
2022/06/29 00:24:43;;;;;;;;;;;17.00;85.40;;;;;;5001874;28;19926;-85
2022/06/29 00:27:11;;;;;;;;;;;17.00;86.00;;;;;;5027311;28;19926;-86
2022/06/29 00:29:39;;;;;;;;;;;16.90;85.90;;;;;;4991759;28;19930;-85
2022/06/29 00:32:08;;;;;;;;;;;17.00;86.40;;;;;;4997224;28;20280;-85
2022/06/29 00:34:35;;;;;;;;;;;16.10;85.80;;;;;;4995747;28;20440;-85
2022/06/29 00:37:04;;;;;;;;;;;17.20;86.80;;;;;;4994233;28;19926;-86
2022/06/29 00:39:32;;;;;;;;;;;16.90;86.30;;;;;;5028196;28;19934;-85
2022/06/29 00:42:00;;;;;;;;;;;16.90;86.60;;;;;;4992331;28;19926;-85
2022/06/29 00:44:30;;;;;;;;;;;16.90;87.30;;;;;;4996335;28;19926;-85
2022/06/29 00:46:59;;;;;;;;;;;16.90;86.70;;;;;;5010291;28;19930;-85
2022/06/29 00:49:28;;;;;;;;;;;16.80;87.00;;;;;;4990319;28;19927;-86
2022/06/29 00:52:09;;;;;;;;;;;16.80;87.10;;;;;;4988414;28;19929;-85
2022/06/29 00:54:41;;;;;;;;;;;16.80;87.50;;;;;;5010970;28;19949;-86
2022/06/29 00:57:29;;;;;;;;;;;16.70;88.20;;;;;;5027223;28;19930;-86
2022/06/29 00:59:59;;;;;;;;;;;16.70;87.90;;;;;;4991173;28;19930;-86
2022/06/29 01:02:35;;;;;;;;;;;16.70;88.00;;;;;;4987591;28;19941;-86
2022/06/29 01:05:04;;;;;;;;;;;16.60;88.10;;;;;;4993328;28;19937;-85
2022/06/29 01:07:33;;;;;;;;;;;16.60;88.90;;;;;;4992631;28;19938;-86
2022/06/29 01:10:02;;;;;;;;;;;16.70;88.40;;;;;;4992576;28;19933;-86
2022/06/29 01:12:31;;;;;;;;;;;16.60;88.70;;;;;;4993691;28;19936;-86
2022/06/29 01:14:58;;;;;;;;;;;16.60;90.00;;;;;;4977640;28;19956;-86
2022/06/29 01:17:26;;;;;;;;;;;16.50;90.00;;;;;;4978149;28;19930;-85
2022/06/29 01:19:54;;;;;;;;;;;16.50;89.90;;;;;;4991031;28;19932;-86
2022/06/29 01:22:22;;;;;;;;;;;16.50;90.00;;;;;;4995232;28;20947;-85
2022/06/29 01:24:50;;;;;;;;;;;16.50;90.10;;;;;;4978817;28;19929;-86
2022/06/29 01:27:19;;;;;;;;;;;16.60;90.10;;;;;;4978084;28;20408;-85
2022/06/29 01:29:47;;;;;;;;;;;16.50;90.20;;;;;;4982887;28;19926;-86
2022/06/29 01:32:14;;;;;;;;;;;16.50;90.20;;;;;;5000307;28;19936;-86
2022/06/29 01:34:43;;;;;;;;;;;16.50;90.40;;;;;;5000378;28;19933;-85
2022/06/29 01:37:11;;;;;;;;;;;16.50;90.40;;;;;;4991526;28;19926;-86
2022/06/29 01:39:39;;;;;;;;;;;16.50;90.50;;;;;;4995164;28;19937;-86
2022/06/29 01:42:07;;;;;;;;;;;16.50;90.60;;;;;;4997171;28;19941;-86
2022/06/29 01:44:35;;;;;;;;;;;16.50;90.50;;;;;;4979244;28;20138;-85
2022/06/29 01:47:03;;;;;;;;;;;16.50;90.70;;;;;;5000601;28;20601;-85
2022/06/29 01:49:31;;;;;;;;;;;16.50;91.00;;;;;;4999593;28;19926;-85
2022/06/29 01:51:59;;;;;;;;;;;16.40;91.10;;;;;;4999971;28;19932;-85
2022/06/29 01:54:28;;;;;;;;;;;16.40;91.20;;;;;;5001137;28;19926;-85
2022/06/29 01:56:55;;;;;;;;;;;16.40;91.20;;;;;;4979403;28;19926;-86
2022/06/29 01:59:23;;;;;;;;;;;16.30;91.30;;;;;;4991604;28;19926;-85
2022/06/29 02:01:50;;;;;;;;;;;16.40;91.80;;;;;;4999944;28;19937;-85
2022/06/29 02:04:18;;;;;;;;;;;16.20;91.80;;;;;;4998989;28;19933;-85
2022/06/29 02:06:47;;;;;;;;;;;16.30;91.70;;;;;;5000274;28;19926;-85
2022/06/29 02:09:15;;;;;;;;;;;16.20;91.60;;;;;;4996052;28;19932;-85
2022/06/29 02:11:43;;;;;;;;;;;16.20;91.70;;;;;;5019145;28;19933;-85
2022/06/29 02:14:13;;;;;;;;;;;17.60;92.10;;;;;;4998631;28;20233;-86
2022/06/29 02:16:40;;;;;;;;;;;16.20;91.90;;;;;;5016057;28;19929;-86
2022/06/29 02:19:09;;;;;;;;;;;16.20;92.00;;;;;;5017126;28;19926;-86
2022/06/29 02:21:38;;;;;;;;;;;16.20;92.00;;;;;;5008248;28;20463;-86
2022/06/29 02:24:06;;;;;;;;;;;16.20;92.10;;;;;;5022518;28;19925;-85
2022/06/29 02:26:33;;;;;;;;;;;16.20;92.10;;;;;;5027928;28;19932;-85
2022/06/29 02:29:01;;;;;;;;;;;15.90;92.20;;;;;;5006137;28;19937;-86
2022/06/29 02:37:02;;;;;;;;;;;16.20;92.30;;;;;;5001257;28;19925;-85
2022/06/29 02:39:30;;;;;;;;;;;16.20;92.40;;;;;;5016139;28;19930;-86
2022/06/29 02:41:59;;;;;;;;;;;16.20;92.30;;;;;;5001079;28;19925;-85
2022/06/29 02:44:26;;;;;;;;;;;16.20;92.50;;;;;;5004937;28;19926;-86
2022/06/29 02:46:54;;;;;;;;;;;16.20;92.40;;;;;;5000348;28;19937;-85
2022/06/29 02:49:21;;;;;;;;;;;16.20;92.70;;;;;;4997908;28;19937;-86
2022/06/29 02:51:49;;;;;;;;;;;16.20;92.60;;;;;;4991872;28;19929;-86
2022/06/29 02:54:17;;;;;;;;;;;16.20;93.00;;;;;;5017569;28;19937;-86
2022/06/29 02:56:44;;;;;;;;;;;16.10;92.70;;;;;;5017830;28;19925;-86
2022/06/29 02:59:12;;;;;;;;;;;16.20;92.70;;;;;;5018171;28;19933;-86
2022/06/29 03:01:40;;;;;;;;;;;16.20;92.70;;;;;;5000459;28;19929;-86
2022/06/29 03:04:10;;;;;;;;;;;16.20;93.00;;;;;;4983572;28;19926;-85
2022/06/29 03:06:39;;;;;;;;;;;16.20;93.30;;;;;;5018718;28;19926;-86
2022/06/29 03:09:07;;;;;;;;;;;16.20;93.50;;;;;;5001161;28;19932;-86
2022/06/29 03:11:36;;;;;;;;;;;15.90;93.20;;;;;;4985474;28;19930;-86
2022/06/29 03:14:03;;;;;;;;;;;16.20;93.70;;;;;;5009517;28;19925;-85
2022/06/29 03:16:34;;;;;;;;;;;16.20;93.60;;;;;;5021626;28;19932;-85
2022/06/29 03:19:03;;;;;;;;;;;16.20;93.60;;;;;;4986988;28;19930;-85
2022/06/29 03:21:32;;;;;;;;;;;16.20;93.40;;;;;;4980408;28;19925;-85
2022/06/29 03:24:01;;;;;;;;;;;16.00;93.70;;;;;;4990529;28;19933;-84
2022/06/29 03:26:30;;;;;;;;;;;16.20;93.80;;;;;;4992823;28;19936;-85
2022/06/29 03:28:58;;;;;;;;;;;16.30;94.00;;;;;;5023213;28;19944;-85
2022/06/29 03:31:26;;;;;;;;;;;16.30;94.10;;;;;;5007617;28;19937;-86
2022/06/29 03:33:55;;;;;;;;;;;16.30;94.00;;;;;;5016908;28;19929;-85
2022/06/29 03:36:23;;;;;;;;;;;16.20;94.10;;;;;;5017836;28;19925;-85
2022/06/29 03:38:53;;;;;;;;;;;16.30;94.40;;;;;;5000876;28;20306;-85
2022/06/29 03:41:20;;;;;;;;;;;16.30;94.80;;;;;;5018101;28;19929;-86
2022/06/29 03:43:48;;;;;;;;;;;16.30;94.50;;;;;;5018388;28;19925;-85
2022/06/29 03:46:17;;;;;;;;;;;16.30;94.70;;;;;;5033844;28;19925;-86
2022/06/29 03:48:44;;;;;;;;;;;16.30;94.60;;;;;;5000028;28;19926;-86
2022/06/29 03:51:14;;;;;;;;;;;16.90;94.80;;;;;;4971865;28;19926;-85
2022/06/29 03:53:41;;;;;;;;;;;16.30;94.60;;;;;;5001013;28;20312;-86
2022/06/29 03:56:09;;;;;;;;;;;16.40;94.40;;;;;;4996707;28;19929;-85
2022/06/29 03:58:37;;;;;;;;;;;16.30;94.90;;;;;;5009083;28;19930;-86
2022/06/29 04:01:10;;;;;;;;;;;16.30;94.90;;;;;;4973383;28;19926;-85
2022/06/29 04:03:38;;;;;;;;;;;16.40;95.10;;;;;;4984203;28;19925;-87
2022/06/29 04:06:06;;;;;;;;;;;16.40;95.10;;;;;;4977315;28;19926;-86
2022/06/29 04:08:35;;;;;;;;;;;16.40;95.50;;;;;;4997469;28;19926;-85
2022/06/29 04:11:48;;;;;;;;;;;16.40;95.50;;;;;;4996048;28;19953;-85
2022/06/29 04:13:52;;;;;;;;;;;16.40;95.40;;;;;;4994720;28;20312;-85
2022/06/29 04:16:20;;;;;;;;;;;16.40;95.20;;;;;;5010206;28;19926;-85
2022/06/29 04:18:48;;;;;;;;;;;16.40;95.40;;;;;;5023685;28;19925;-86
2022/06/29 04:21:15;;;;;;;;;;;16.40;95.90;;;;;;4987624;28;20700;-86
2022/06/29 04:23:43;;;;;;;;;;;16.40;95.70;;;;;;4984786;28;19925;-86
2022/06/29 04:26:12;;;;;;;;;;;16.40;95.70;;;;;;5014166;28;19925;-85
2022/06/29 04:28:44;;;;;;;;;;;16.50;95.80;;;;;;5004487;28;19926;-84
2022/06/29 04:31:14;;;;;;;;;;;16.40;95.70;;;;;;5022731;28;19932;-85
2022/06/29 04:33:44;;;;;;;;;;;16.40;95.70;;;;;;5011840;28;19925;-85
2022/06/29 04:36:13;;;;;;;;;;;16.40;96.10;;;;;;5006440;28;19932;-86
2022/06/29 04:38:41;;;;;;;;;;;16.40;96.20;;;;;;5023560;28;19936;-85
2022/06/29 04:41:09;;;;;;;;;;;16.40;96.10;;;;;;4994191;28;20411;-86
2022/06/29 04:43:37;;;;;;;;;;;16.40;96.00;;;;;;4986379;28;19930;-85
2022/06/29 04:46:21;;;;;;;;;;;16.40;96.10;;;;;;5022860;28;19925;-85
2022/06/29 04:48:56;;;;;;;;;;;16.40;96.20;;;;;;4987919;28;19943;-85
2022/06/29 04:51:26;;;;;;;;;;;16.50;96.20;;;;;;5021601;28;19926;-84
2022/06/29 04:53:54;;;;;;;;;;;16.50;96.30;;;;;;5006436;28;19929;-85
2022/06/29 04:56:26;;;;;;;;;;;16.50;96.30;;;;;;5023555;28;20380;-86
2022/06/29 04:58:55;;;;;;;;;;;16.50;96.40;;;;;;4985596;28;19929;-85
2022/06/29 05:01:24;;;;;;;;;;;16.50;96.50;;;;;;5004075;28;19933;-86
2022/06/29 05:03:55;;;;;;;;;;;15.20;96.20;;;;;;4999361;28;19926;-86
2022/06/29 05:06:23;;;;;;;;;;;16.50;96.60;;;;;;5000829;28;19930;-85
2022/06/29 05:08:51;;;;;;;;;;;16.70;96.60;;;;;;5002974;28;19937;-85
2022/06/29 05:11:23;;;;;;;;;;;16.60;96.50;;;;;;4987004;28;19932;-86
2022/06/29 05:13:52;;;;;;;;;;;16.60;96.40;;;;;;5019010;28;19929;-85
2022/06/29 05:16:20;;;;;;;;;;;16.40;96.70;;;;;;4986531;28;20408;-85
2022/06/29 05:18:49;;;;;;;;;;;16.60;96.70;;;;;;5017642;28;19929;-86
2022/06/29 05:21:19;;;;;;;;;;;16.70;97.20;;;;;;5015630;28;19937;-86
2022/06/29 05:23:48;;;;;;;;;;;16.70;96.80;;;;;;5001409;28;19937;-86
2022/06/29 05:26:16;;;;;;;;;;;16.70;96.70;;;;;;5018037;28;19929;-86
2022/06/29 05:28:47;;;;;;;;;;;16.70;96.90;;;;;;4966336;28;20239;-86
2022/06/29 05:31:20;;;;;;;;;;;16.70;96.90;;;;;;4990703;28;19929;-85
2022/06/29 05:33:49;;;;;;;;;;;17.00;97.00;;;;;;4996836;28;20239;-85
2022/06/29 05:36:19;;;;;;;;;;;16.70;97.30;;;;;;5019259;28;19926;-86
2022/06/29 05:38:46;;;;;;;;;;;16.80;97.00;;;;;;4981689;28;19929;-85
2022/06/29 05:41:15;;;;;;;;;;;16.80;97.20;;;;;;4980446;28;19933;-85
2022/06/29 05:43:44;;;;;;;;;;;16.80;97.00;;;;;;4997651;28;19932;-86
2022/06/29 05:46:12;;;;;;;;;;;16.80;97.10;;;;;;4991883;28;20341;-85
2022/06/29 05:48:40;;;;;;;;;;;16.80;97.30;;;;;;5018518;28;19929;-85
2022/06/29 05:51:12;;;;;;;;;;;16.90;97.40;;;;;;5013402;28;19930;-86
2022/06/29 05:53:40;;;;;;;;;;;16.90;97.40;;;;;;5018539;28;19925;-87
2022/06/29 05:56:08;;;;;;;;;;;16.90;97.30;;;;;;5000681;28;19926;-86
2022/06/29 05:58:38;;;;;;;;;;;16.90;97.30;;;;;;4997470;28;19925;-86
2022/06/29 06:01:09;;;;;;;;;;;17.00;97.50;;;;;;5019097;28;19929;-86
2022/06/29 06:03:38;;;;;;;;;;;17.00;97.30;;;;;;5005507;28;19940;-86
2022/06/29 06:06:29;;;;;;;;;;;17.00;97.50;;;;;;5010554;28;19926;-86
2022/06/29 06:08:57;;;;;;;;;;;17.00;97.30;;;;;;4997277;28;19929;-86
2022/06/29 06:11:25;;;;;;;;;;;17.10;97.40;;;;;;5016718;28;19925;-85
2022/06/29 06:13:54;;;;;;;;;;;17.20;97.40;;;;;;4982553;28;19949;-85
2022/06/29 06:16:22;;;;;;;;;;;17.20;97.30;;;;;;5017517;28;19925;-86
2022/06/29 06:19:08;;;;;;;;;;;17.20;97.30;;;;;;4987718;28;19925;-86
2022/06/29 06:21:37;;;;;;;;;;;17.30;97.10;;;;;;5000000;28;19936;-86
2022/06/29 06:24:05;;;;;;;;;;;17.30;97.60;;;;;;4995697;28;19932;-86
2022/06/29 06:26:34;;;;;;;;;;;17.40;97.10;;;;;;4984320;28;19933;-85
2022/06/29 06:29:07;;;;;;;;;;;17.40;97.20;;;;;;4982704;28;19926;-85
2022/06/29 06:31:39;;;;;;;;;;;15.90;96.80;;;;;;5015671;28;19937;-86
2022/06/29 06:34:07;;;;;;;;;;;17.50;97.20;;;;;;4995085;28;20470;-85
2022/06/29 06:36:36;;;;;;;;;;;17.60;97.20;;;;;;5007065;28;20598;-87
2022/06/29 06:39:05;;;;;;;;;;;17.60;97.20;;;;;;5027157;28;19925;-86
2022/06/29 06:41:34;;;;;;;;;;;17.60;97.10;;;;;;5015183;28;19936;-86
2022/06/29 06:44:07;;;;;;;;;;;17.60;97.10;;;;;;5020955;28;20033;-86
2022/06/29 06:46:48;;;;;;;;;;;17.70;97.00;;;;;;5003626;28;20434;-86
2022/06/29 06:49:20;;;;;;;;;;;17.60;97.70;;;;;;4996592;28;19930;-86
2022/06/29 06:51:50;;;;;;;;;;;17.60;97.70;;;;;;4985577;28;19936;-86
2022/06/29 06:54:18;;;;;;;;;;;17.60;97.50;;;;;;4990961;28;19933;-87
2022/06/29 06:56:46;;;;;;;;;;;17.60;97.70;;;;;;4984897;28;19926;-86
2022/06/29 06:59:16;;;;;;;;;;;17.50;97.70;;;;;;4988939;28;19933;-87
2022/06/29 07:02:10;;;;;;;;;;;17.60;97.70;;;;;;5006142;28;19925;-85
2022/06/29 07:04:41;;;;;;;;;;;17.60;97.90;;;;;;5020372;28;20277;-85
2022/06/29 07:07:15;;;;;;;;;;;17.60;98.10;;;;;;4992704;28;19925;-85
2022/06/29 07:09:44;;;;;;;;;;;17.60;98.00;;;;;;4971301;28;19936;-86
2022/06/29 07:12:15;;;;;;;;;;;17.70;98.20;;;;;;5000042;28;19925;-86
2022/06/29 07:14:42;;;;;;;;;;;17.80;98.00;;;;;;5000125;28;19929;-86
2022/06/29 07:17:14;;;;;;;;;;;17.80;97.90;;;;;;5018070;28;19929;-86
2022/06/29 07:19:44;;;;;;;;;;;17.80;97.80;;;;;;5004583;28;19930;-87
2022/06/29 07:22:16;;;;;;;;;;;18.10;98.20;;;;;;4987728;28;20143;-87
2022/06/29 07:24:46;;;;;;;;;;;17.70;98.30;;;;;;5011399;28;19929;-85
2022/06/29 07:27:16;;;;;;;;;;;17.50;98.10;;;;;;4985509;28;19938;-86
2022/06/29 07:29:44;;;;;;;;;;;17.80;98.20;;;;;;4988147;28;19936;-86
2022/06/29 07:32:15;;;;;;;;;;;17.90;98.40;;;;;;5000226;28;19929;-86
2022/06/29 07:34:48;;;;;;;;;;;17.90;98.20;;;;;;4992400;28;19933;-85
2022/06/29 07:37:16;;;;;;;;;;;18.00;98.40;;;;;;4985678;28;19929;-85
2022/06/29 07:39:46;;;;;;;;;;;18.00;98.20;;;;;;4985767;28;19953;-85
2022/06/29 07:42:39;;;;;;;;;;;18.10;98.30;;;;;;4655243;28;10000457;-85
2022/06/29 07:45:08;;;;;;;;;;;18.00;98.20;;;;;;4999441;28;19941;-85
2022/06/29 07:47:36;;;;;;;;;;;18.20;98.30;;;;;;5016362;28;19925;-86
2022/06/29 07:50:07;;;;;;;;;;;18.20;98.70;;;;;;5020254;28;19926;-86
2022/06/29 07:52:36;;;;;;;;;;;18.40;98.90;;;;;;5001806;28;19925;-86
2022/06/29 07:55:04;;;;;;;;;;;18.40;98.90;;;;;;4985993;28;19925;-86
2022/06/29 07:57:35;;;;;;;;;;;18.40;99.10;;;;;;5002053;28;19925;-86
2022/06/29 08:00:07;;;;;;;;;;;18.40;99.30;;;;;;5016385;28;19945;-85
2022/06/29 08:02:41;;;;;;;;;;;18.50;99.70;;;;;;4982554;28;19929;-85
2022/06/29 08:05:09;;;;;;;;;;;18.50;99.10;;;;;;5018654;28;20392;-85
2022/06/29 08:07:37;;;;;;;;;;;18.40;99.20;;;;;;5016961;28;19929;-85
2022/06/29 08:10:07;;;;;;;;;;;18.50;99.40;;;;;;5019949;28;19925;-85
2022/06/29 08:12:35;;;;;;;;;;;18.60;99.10;;;;;;5000935;28;19932;-85
2022/06/29 08:15:05;;;;;;;;;;;18.70;99.30;;;;;;5004098;28;19929;-86
2022/06/29 08:17:33;;;;;;;;;;;18.70;99.10;;;;;;4982196;28;19929;-87
2022/06/29 08:20:02;;;;;;;;;;;18.80;99.10;;;;;;5002318;28;19929;-86
2022/06/29 08:22:40;;;;;;;;;;;18.70;99.00;;;;;;4999507;28;19933;-85
2022/06/29 08:25:11;;;;;;;;;;;18.90;99.10;;;;;;4994396;28;19933;-85
2022/06/29 08:27:40;;;;;;;;;;;18.90;98.90;;;;;;5013306;28;19940;-86
2022/06/29 08:30:17;;;;;;;;;;;19.00;98.90;;;;;;5005573;28;19929;-86
2022/06/29 08:32:50;;;;;;;;;;;19.10;98.80;;;;;;5018413;28;19993;-86
2022/06/29 08:35:19;;;;;;;;;;;19.30;98.80;;;;;;5013173;28;19933;-84
2022/06/29 08:37:50;;;;;;;;;;;19.50;98.50;;;;;;5024276;28;19926;-83
2022/06/29 08:40:19;;;;;;;;;;;19.60;98.30;;;;;;5006663;28;19929;-84
2022/06/29 08:42:47;;;;;;;;;;;19.70;97.90;;;;;;5013045;28;19929;-83
2022/06/29 08:45:16;;;;;;;;;;;19.80;97.70;;;;;;5003616;28;19926;-84
2022/06/29 08:47:46;;;;;;;;;;;19.90;97.70;;;;;;5001143;28;19949;-83
2022/06/29 08:50:24;;;;;;;;;;;19.90;97.50;;;;;;4992912;28;19925;-83
2022/06/29 08:52:52;;;;;;;;;;;19.90;97.60;;;;;;4993736;28;19934;-84
2022/06/29 08:55:20;;;;;;;;;;;19.80;97.70;;;;;;5007517;28;19926;-83
2022/06/29 08:57:48;;;;;;;;;;;19.70;97.70;;;;;;4988183;28;20004;-83
2022/06/29 09:00:16;;;;;;;;;;;19.70;97.80;;;;;;4988146;28;19930;-84
2022/06/29 09:02:46;;;;;;;;;;;19.70;97.90;;;;;;5002747;28;19936;-85
2022/06/29 09:05:14;;;;;;;;;;;19.70;97.90;;;;;;4997287;28;20388;-84
2022/06/29 09:07:45;;;;;;;;;;;19.60;98.10;;;;;;5002004;28;20285;-82
2022/06/29 09:10:17;;;;;;;;;;;19.50;98.20;;;;;;5002836;28;19941;-85
2022/06/29 09:12:52;;;;;;;;;;;19.50;98.40;;;;;;4967455;28;19936;-85
2022/06/29 09:15:29;;;;;;;;;;;19.50;98.70;;;;;;4972588;28;19926;-85
2022/06/29 09:17:58;;;;;;;;;;;19.60;99.10;;;;;;4991644;28;20285;-86
2022/06/29 09:20:41;;;;;;;;;;;19.60;99.40;;;;;;4972968;28;19926;-85
2022/06/29 09:23:14;;;;;;;;;;;19.60;99.10;;;;;;4984124;28;19926;-86
2022/06/29 09:25:45;;;;;;;;;;;19.60;99.60;;;;;;4983160;28;19929;-86
2022/06/29 09:28:36;;;;;;;;;;;19.60;99.50;;;;;;4983809;28;20154;-85
2022/06/29 09:31:05;;;;;;;;;;;19.60;99.80;;;;;;4988444;28;19929;-85
2022/06/29 09:33:34;;;;;;;;;;;19.70;99.90;;;;;;4982569;28;19926;-84
2022/06/29 09:36:14;;;;;;;;;;;19.80;99.90;;;;;;4991113;28;19949;-84
2022/06/29 09:38:43;;;;;;;;;;;19.70;99.60;;;;;;4980606;28;19936;-84
2022/06/29 09:41:13;;;;;;;;;;;19.70;99.60;;;;;;4997969;28;19937;-84
2022/06/29 09:43:42;;;;;;;;;;;19.70;99.30;;;;;;4968706;28;19933;-85
2022/06/29 09:46:15;;;;;;;;;;;20.60;99.90;;;;;;4985755;28;19949;-84
2022/06/29 09:48:43;;;;;;;;;;;19.80;99.40;;;;;;4958933;28;19930;-84
2022/06/29 09:54:03;;;;;;;;;;;19.60;99.60;;;;;;4980926;28;19930;-84
2022/06/29 09:56:35;;;;;;;;;;;19.60;99.90;;;;;;5002305;28;19930;-84
2022/06/29 09:59:06;;;;;;;;;;;19.60;99.90;;;;;;4985441;28;19941;-84
2022/06/29 10:04:24;;;;;;;;;;;19.60;99.90;;;;;;4989052;28;19925;-85
2022/06/29 10:06:54;;;;;;;;;;;19.60;99.90;;;;;;4989281;28;19926;-84
2022/06/29 10:09:22;;;;;;;;;;;19.50;99.90;;;;;;4970581;28;19937;-84
2022/06/29 10:15:08;;;;;;;;;;;19.70;99.90;;;;;;4983171;28;19981;-85
2022/06/29 10:17:49;;;;;;;;;;;19.90;99.90;;;;;;5002574;28;19930;-83
2022/06/29 10:20:42;;;;;;;;;;;19.90;99.70;;;;;;4987461;28;20293;-83
2022/06/29 10:23:32;;;;;;;;;;;19.90;99.90;;;;;;4970012;28;19929;-84
2022/06/29 10:26:02;;;;;;;;;;;20.00;99.80;;;;;;4982368;28;19957;-84
2022/06/29 10:28:30;;;;;;;;;;;19.70;99.50;;;;;;4988429;28;19952;-84
2022/06/29 10:31:01;;;;;;;;;;;19.70;99.30;;;;;;4986387;28;20439;-86
2022/06/29 10:33:29;;;;;;;;;;;19.40;99.50;;;;;;4997140;28;19926;-87
2022/06/29 10:36:06;;;;;;;;;;;19.10;99.80;;;;;;4968144;28;19929;-85
2022/06/29 10:38:50;;;;;;;;;;;18.90;99.90;;;;;;4970136;28;19941;-86
2022/06/29 10:44:07;;;;;;;;;;;18.60;99.90;;;;;;4990720;28;19932;-85
2022/06/29 10:46:53;;;;;;;;;;;18.40;99.90;;;;;;4972824;28;19926;-86
2022/06/29 10:49:23;;;;;;;;;;;18.40;99.90;;;;;;5009475;28;19937;-87
2022/06/29 10:51:53;;;;;;;;;;;18.30;99.90;;;;;;4975031;28;19930;-86
2022/06/29 10:54:27;;;;;;;;;;;18.20;99.90;;;;;;5006407;28;19933;-86
2022/06/29 10:56:56;;;;;;;;;;;18.10;99.90;;;;;;4988414;28;19941;-86
2022/06/29 10:59:34;;;;;;;;;;;18.10;99.90;;;;;;4982259;28;19930;-86
2022/06/29 11:02:09;;;;;;;;;;;18.10;99.90;;;;;;5004861;28;19937;-85
2022/06/29 11:04:38;;;;;;;;;;;18.00;99.90;;;;;;4966832;28;19930;-86
2022/06/29 11:12:48;;;;;;;;;;;17.90;99.90;;;;;;5012874;28;20250;-86
2022/06/29 11:15:39;;;;;;;;;;;17.90;99.90;;;;;;4997680;28;20005;-85
2022/06/29 11:18:11;;;;;;;;;;;17.70;99.90;;;;;;5013402;28;19934;-85
2022/06/29 11:20:41;;;;;;;;;;;17.90;99.90;;;;;;4988099;28;19926;-86
2022/06/29 11:23:21;;;;;;;;;;;17.90;99.90;;;;;;5007462;28;19947;-85
2022/06/29 11:26:03;;;;;;;;;;;17.90;99.90;;;;;;5007065;28;19937;-86
2022/06/29 11:29:16;;;;;;;;;;;18.00;99.90;;;;;;5001831;28;19926;-86
2022/06/29 11:32:05;;;;;;;;;;;18.10;99.90;;;;;;5009099;28;19944;-86
2022/06/29 11:34:51;;;;;;;;;;;18.10;99.90;;;;;;5007196;28;19925;-85
2022/06/29 11:37:31;;;;;;;;;;;18.20;99.90;;;;;;4998241;28;19926;-86
2022/06/29 11:40:28;;;;;;;;;;;18.40;99.90;;;;;;5008847;28;19936;-85
2022/06/29 11:43:12;;;;;;;;;;;18.50;99.90;;;;;;5022671;28;19926;-86
2022/06/29 11:45:47;;;;;;;;;;;18.70;99.90;;;;;;4965397;28;19930;-87
2022/06/29 11:48:18;;;;;;;;;;;19.00;99.90;;;;;;4992595;28;19925;-84
2022/06/29 11:50:46;;;;;;;;;;;19.10;99.90;;;;;;4663861;28;9999840;-83
2022/06/29 11:53:47;;;;;;;;;;;19.20;99.90;;;;;;5024908;28;19936;-83
2022/06/29 11:56:22;;;;;;;;;;;19.30;99.90;;;;;;5025598;28;19955;-84
2022/06/29 11:58:54;;;;;;;;;;;19.40;99.90;;;;;;4994064;28;19917;-84
2022/06/29 12:01:27;;;;;;;;;;;19.50;99.90;;;;;;4996255;28;19945;-84
2022/06/29 12:03:57;;;;;;;;;;;19.60;99.90;;;;;;5028235;28;19933;-84
2022/06/29 12:06:44;;;;;;;;;;;19.70;99.90;;;;;;5002253;28;19932;-85
2022/06/29 12:09:16;;;;;;;;;;;19.90;99.90;;;;;;5007800;28;19935;-84
2022/06/29 12:11:45;;;;;;;;;;;20.20;99.90;;;;;;5000455;28;19936;-84
2022/06/29 12:14:19;;;;;;;;;;;20.30;99.20;;;;;;5006048;28;19925;-84
2022/06/29 12:16:47;;;;;;;;;;;20.50;99.30;;;;;;4983333;28;19929;-83
2022/06/29 12:19:17;;;;;;;;;;;20.60;98.40;;;;;;4980263;28;19933;-85
2022/06/29 12:21:45;;;;;;;;;;;20.70;98.50;;;;;;4993178;28;19925;-84
2022/06/29 12:24:13;;;;;;;;;;;20.80;98.90;;;;;;5004424;28;20324;-84
2022/06/29 12:26:43;;;;;;;;;;;20.80;98.10;;;;;;5017979;28;20373;-83
2022/06/29 12:29:13;;;;;;;;;;;21.30;98.20;;;;;;4994737;28;19925;-84
2022/06/29 12:31:44;;;;;;;;;;;21.80;98.70;;;;;;4985472;28;19932;-84
2022/06/29 12:34:17;;;;;;;;;;;21.80;98.20;;;;;;5016947;28;19929;-83
2022/06/29 12:36:56;;;;;;;;;;;21.80;97.00;;;;;;5001540;28;19933;-84
2022/06/29 12:39:28;;;;;;;;;;;21.80;97.10;;;;;;5020184;28;19941;-84
2022/06/29 12:41:59;;;;;;;;;;;21.90;96.60;;;;;;5000390;28;19922;-83
2022/06/29 12:44:29;;;;;;;;;;;22.10;96.20;;;;;;5020179;28;20550;-85
2022/06/29 12:47:00;;;;;;;;;;;21.50;95.70;;;;;;5005584;28;19926;-84
2022/06/29 12:49:29;;;;;;;;;;;22.30;96.00;;;;;;4993180;28;19931;-83
2022/06/29 12:51:57;;;;;;;;;;;22.60;95.40;;;;;;5011090;28;19934;-84
2022/06/29 12:54:27;;;;;;;;;;;23.00;95.10;;;;;;5008412;28;19926;-84
2022/06/29 12:56:56;;;;;;;;;;;23.30;94.50;;;;;;5004728;28;19936;-84
2022/06/29 12:59:24;;;;;;;;;;;23.60;93.80;;;;;;4983383;28;20487;-85
2022/06/29 13:01:55;;;;;;;;;;;23.70;93.10;;;;;;5017810;28;19933;-85
2022/06/29 13:04:24;;;;;;;;;;;23.00;92.60;;;;;;4989459;28;19926;-84
2022/06/29 13:06:54;;;;;;;;;;;23.90;92.60;;;;;;4984804;28;19926;-85
2022/06/29 13:09:26;;;;;;;;;;;23.80;93.00;;;;;;4998033;28;19929;-83
2022/06/29 13:11:54;;;;;;;;;;;23.70;92.40;;;;;;5000972;28;19925;-84
2022/06/29 13:14:26;;;;;;;;;;;23.70;92.90;;;;;;4979401;28;19926;-83
2022/06/29 13:16:54;;;;;;;;;;;23.70;92.00;;;;;;4983433;28;19929;-85
2022/06/29 13:19:24;;;;;;;;;;;23.80;91.40;;;;;;5017014;28;19926;-84
2022/06/29 13:21:52;;;;;;;;;;;23.70;91.50;;;;;;4994866;28;19929;-84
2022/06/29 13:24:20;;;;;;;;;;;23.50;91.40;;;;;;4982991;28;19926;-84
2022/06/29 13:26:54;;;;;;;;;;;23.40;91.50;;;;;;5003057;28;19932;-85
2022/06/29 13:29:25;;;;;;;;;;;23.40;91.50;;;;;;4991379;28;20626;-86
2022/06/29 13:31:55;;;;;;;;;;;23.40;91.60;;;;;;5002681;28;19929;-86
2022/06/29 13:34:27;;;;;;;;;;;23.30;91.60;;;;;;4971582;28;19926;-83
2022/06/29 13:37:24;;;;;;;;;;;23.20;91.20;;;;;;4989869;28;19933;-91
2022/06/29 13:40:03;;;;;;;;;;;23.10;91.10;;;;;;5012970;28;19935;-89
2022/06/29 13:42:40;;;;;;;;;;;22.90;91.50;;;;;;4995144;28;19926;-90
2022/06/29 13:45:38;;;;;;;;;;;22.80;92.00;;;;;;5019378;28;19925;-88
2022/06/29 13:48:12;;;;;;;;;;;22.70;91.30;;;;;;4994675;28;19932;-88
2022/06/29 13:51:10;;;;;;;;;;;22.70;91.30;;;;;;5001452;28;19926;-88
2022/06/29 13:54:05;;;;;;;;;;;22.60;91.30;;;;;;4995073;28;19914;-89
2022/06/29 13:56:43;;;;;;;;;;;23.00;90.90;;;;;;4989554;28;19929;-88
2022/06/29 13:59:17;;;;;;;;;;;22.80;90.90;;;;;;4997985;28;19949;-90
2022/06/29 14:02:01;;;;;;;;;;;22.80;90.80;;;;;;5007368;28;19926;-89
2022/06/29 14:04:36;;;;;;;;;;;23.10;90.50;;;;;;5006596;28;19936;-89
2022/06/29 14:07:08;;;;;;;;;;;22.70;90.40;;;;;;4992828;28;20154;-88
2022/06/29 14:09:58;;;;;;;;;;;22.60;89.40;;;;;;4998643;28;19929;-86
2022/06/29 14:12:45;;;;;;;;;;;22.30;90.60;;;;;;4987702;28;19929;-86
2022/06/29 14:15:17;;;;;;;;;;;22.20;90.10;;;;;;5005597;28;19929;-87
2022/06/29 14:17:46;;;;;;;;;;;22.50;90.30;;;;;;5005010;28;19945;-85
2022/06/29 14:20:14;;;;;;;;;;;22.20;90.80;;;;;;4995094;28;19925;-87
2022/06/29 14:22:43;;;;;;;;;;;22.30;90.20;;;;;;5012511;28;19925;-88
2022/06/29 14:25:21;;;;;;;;;;;22.50;90.00;;;;;;4976473;28;19940;-88
2022/06/29 14:28:00;;;;;;;;;;;22.70;88.50;;;;;;5007978;28;19926;-88
2022/06/29 14:30:35;;;;;;;;;;;23.00;88.20;;;;;;4989624;28;19929;-85
2022/06/29 14:33:13;;;;;;;;;;;23.30;87.80;;;;;;5002556;28;19929;-86
2022/06/29 14:35:56;;;;;;;;;;;23.30;86.40;;;;;;5005351;28;19929;-92
2022/06/29 14:49:01;;;;;;;;;;;23.80;84.50;;;;;;5031920;23;20088;-81
2022/06/29 14:51:58;;;;;;;;;;;23.80;84.50;;;;;;5062158;28;19929;-82
2022/06/29 14:59:10;;;;;;;;;;;23.70;84.50;;;;;;4995634;28;19922;-84
2022/06/29 15:02:49;;;;;;;;;;;;;;;;;;;;;
2022/06/29 15:06:31;;;;;;;;;;;;;;;;;;;;;
2022/06/29 15:10:07;;;;;;;;;;;23.20;83.80;;;;;;4964381;28;19933;-83
2022/06/29 15:42:35;;;;;;;;;;;23.50;84.20;;;;;;4948077;29;19930;-85
2022/06/29 15:46:28;;;;;;;;;;;24.20;83.10;;;;;;4882421;29;20352;-82
2022/06/29 16:05:19;;;;;;;;;;;22.90;79.60;;;;;;4914566;29;19937;-83
2022/06/29 16:16:05;;;;;;;;;;;25.20;77.20;;;;;;4890985;29;19942;-84
2022/06/29 16:18:54;;;;;;;;;;;25.80;74.80;;;;;;4934778;28;20510;-82
2022/06/29 16:21:48;;;;;;;;;;;24.50;73.90;;;;;;4944048;29;19942;-83
2022/06/29 16:24:48;;;;;;;;;;;25.70;74.10;;;;;;4965090;28;19931;-85